Time;durP1;ratioP1;P1;durP2;ratioP2;P2;SDS_P1;SDS_P2;PMS_P1;PMS_P2;Temp;Humidity;BMP_temperature;BMP_pressure;BME280_temperature;BME280_humidity;BME280_pressure;Samples;Min_cycle;Max_cycle;Signal;HPM_P1;HPM_P2
2022/07/04 00:01:19;;;;;;;4.27;3.47;;;;;;;16.84;58.82;100923.77;1744768;81;21341;-81
2022/07/04 00:03:45;;;;;;;5.00;3.23;;;;;;;16.84;58.88;100920.30;1728670;82;21062;-81
2022/07/04 00:06:11;;;;;;;4.37;3.00;;;;;;;16.83;58.95;100916.84;1738492;82;21130;-81
2022/07/04 00:08:38;;;;;;;7.63;3.17;;;;;;;16.83;58.98;100925.98;1745284;82;21044;-81
2022/07/04 00:11:04;;;;;;;3.90;2.33;;;;;;;16.83;59.06;100920.77;1733292;80;21079;-81
2022/07/04 00:13:30;;;;;;;2.67;2.43;;;;;;;16.85;59.12;100918.09;1731672;80;20901;-81
2022/07/04 00:15:56;;;;;;;3.20;2.70;;;;;;;16.86;59.15;100919.80;1731204;82;21115;-81
2022/07/04 00:18:22;;;;;;;3.60;2.83;;;;;;;16.86;59.23;100923.27;1745418;82;21386;-81
2022/07/04 00:20:48;;;;;;;6.37;3.37;;;;;;;16.87;59.30;100918.89;1745183;82;21044;-81
2022/07/04 00:23:14;;;;;;;4.83;2.80;;;;;;;16.88;59.36;100914.91;1726093;82;21067;-81
2022/07/04 00:25:44;;;;;;;2.80;2.45;;;;;;;16.90;59.39;100918.77;1741500;82;21131;-81
2022/07/04 00:28:10;;;;;;;4.53;2.87;;;;;;;16.90;59.42;100911.39;1745067;82;20897;-81
2022/07/04 00:30:37;;;;;;;2.97;2.37;;;;;;;16.87;59.49;100915.83;1738519;82;20987;-81
2022/07/04 00:33:03;;;;;;;4.10;2.87;;;;;;;16.85;59.53;100912.42;1732130;82;21379;-81
2022/07/04 00:35:29;;;;;;;3.00;2.45;;;;;;;16.82;59.63;100910.38;1715332;83;21115;-81
2022/07/04 00:37:55;;;;;;;2.67;2.33;;;;;;;16.81;59.65;100907.36;1718784;82;21028;-81
2022/07/04 00:40:21;;;;;;;2.57;2.33;;;;;;;16.79;59.67;100908.72;1744995;82;21082;-81
2022/07/04 00:42:47;;;;;;;3.17;2.17;;;;;;;16.75;59.68;100913.66;1727327;80;20967;-81
2022/07/04 00:45:14;;;;;;;3.92;2.12;;;;;;;16.71;59.76;100906.00;1744507;82;21040;-81
2022/07/04 00:47:40;;;;;;;2.52;2.33;;;;;;;16.69;59.80;100900.83;1745059;82;21035;-81
2022/07/04 00:50:07;;;;;;;4.70;2.63;;;;;;;16.67;59.89;100901.34;1742058;81;21092;-81
2022/07/04 00:52:33;;;;;;;3.20;2.40;;;;;;;16.68;59.92;100898.27;1709403;83;21068;-81
2022/07/04 00:55:01;;;;;;;6.05;2.17;;;;;;;16.68;60.00;100894.36;1697687;83;21430;-81
2022/07/04 00:57:28;;;;;;;3.35;2.65;;;;;;;16.66;60.05;100891.80;1711267;83;20885;-81
2022/07/04 00:59:54;;;;;;;3.17;2.25;;;;;;;16.66;60.07;100894.41;1717112;82;20913;-81
2022/07/04 01:02:20;;;;;;;2.67;2.17;;;;;;;16.60;60.13;100886.80;1726884;83;20881;-81
2022/07/04 01:04:46;;;;;;;3.10;2.50;;;;;;;16.59;60.17;100889.47;1713421;82;20922;-81
2022/07/04 01:07:12;;;;;;;5.23;2.50;;;;;;;16.59;60.23;100890.77;1697606;83;20926;-81
2022/07/04 01:09:38;;;;;;;2.80;2.60;;;;;;;16.58;60.30;100886.45;1716060;83;21569;-81
2022/07/04 01:12:06;;;;;;;2.50;2.30;;;;;;;16.58;60.29;100886.00;1725855;82;21035;-81
2022/07/04 01:14:32;;;;;;;3.30;2.58;;;;;;;16.60;60.35;100887.25;1726486;82;21072;-81
2022/07/04 01:16:58;;;;;;;2.70;2.33;;;;;;;16.58;60.38;100883.84;1712429;79;21085;-81
2022/07/04 01:19:24;;;;;;;4.45;2.35;;;;;;;16.55;60.44;100891.34;1697710;83;21055;-81
2022/07/04 01:21:50;;;;;;;3.17;2.57;;;;;;;16.55;60.51;100886.97;1697328;83;21069;-81
2022/07/04 01:24:17;;;;;;;4.07;2.33;;;;;;;16.55;60.59;100886.97;1697838;83;20921;-81
2022/07/04 01:26:43;;;;;;;2.50;2.17;;;;;;;16.54;60.63;100885.72;1698049;83;21071;-81
2022/07/04 01:29:09;;;;;;;4.03;2.60;;;;;;;16.51;60.68;100887.13;1708940;83;20898;-81
2022/07/04 01:31:35;;;;;;;3.52;2.35;;;;;;;16.47;60.77;100884.23;1716636;82;21139;-81
2022/07/04 01:34:03;;;;;;;2.52;2.08;;;;;;;16.46;60.80;100887.30;1697120;83;21035;-81
2022/07/04 01:36:29;;;;;;;3.37;2.10;;;;;;;16.42;60.85;100888.77;1697719;83;20984;-81
2022/07/04 01:38:56;;;;;;;9.03;2.57;;;;;;;16.37;60.90;100873.27;1727150;79;20909;-81
2022/07/04 01:41:22;;;;;;;4.55;2.20;;;;;;;16.36;60.95;100874.17;1727542;81;21004;-81
2022/07/04 01:43:48;;;;;;;3.65;2.35;;;;;;;16.34;61.04;100871.22;1702333;82;20944;-81
2022/07/04 01:46:18;;;;;;;2.98;2.02;;;;;;;16.36;61.11;100869.41;1698713;83;20929;-81
2022/07/04 01:48:44;;;;;;;2.50;2.30;;;;;;;16.38;61.11;100871.06;1724377;83;20949;-81
2022/07/04 01:51:10;;;;;;;3.50;2.30;;;;;;;16.36;61.17;100872.87;1726120;81;20873;-81
2022/07/04 01:53:37;;;;;;;2.90;2.33;;;;;;;16.34;61.15;100870.77;1710928;83;21645;-81
2022/07/04 01:56:04;;;;;;;2.60;2.40;;;;;;;16.31;61.18;100865.66;1702811;83;20927;-81
2022/07/04 01:58:31;;;;;;;8.75;2.15;;;;;;;16.29;61.25;100857.48;1682128;83;20948;-81
2022/07/04 02:03:48;;;;;;;2.62;2.00;;;;;;;16.27;61.35;100865.81;1706351;83;21441;-81
2022/07/04 02:06:14;;;;;;;2.10;1.90;;;;;;;16.22;61.40;100854.23;1686759;83;20939;-81
2022/07/04 02:11:24;;;;;;;3.85;2.35;;;;;;;16.20;61.46;100854.75;1719780;82;21369;-81
2022/07/04 02:13:54;;;;;;;3.62;2.27;;;;;;;16.17;61.51;100854.85;1714858;81;21424;-81
2022/07/04 02:16:21;;;;;;;5.50;2.80;;;;;;;16.15;61.50;100855.36;1694580;83;20900;-81
2022/07/04 02:18:46;;;;;;;4.03;2.60;;;;;;;16.09;61.60;100860.82;1710797;83;21472;-81
2022/07/04 02:21:12;;;;;;;3.13;2.40;;;;;;;16.06;61.68;100853.95;1704412;83;21646;-81
2022/07/04 02:23:38;;;;;;;3.07;2.50;;;;;;;16.02;61.72;100860.63;1695133;83;20864;-81
2022/07/04 02:26:05;;;;;;;3.30;2.57;;;;;;;16.00;61.82;100861.14;1711005;83;21657;-81
2022/07/04 02:28:31;;;;;;;2.83;2.27;;;;;;;16.01;61.87;100868.91;1705806;83;20901;-81
2022/07/04 02:30:57;;;;;;;2.62;2.40;;;;;;;15.95;61.89;100865.66;1693904;83;21527;-81
2022/07/04 02:33:26;;;;;;;3.10;2.75;;;;;;;15.90;61.95;100869.72;1680565;84;21504;-81
2022/07/04 02:35:51;;;;;;;2.92;2.50;;;;;;;15.83;62.00;100866.47;1680770;84;21031;-81
2022/07/04 02:38:17;;;;;;;2.67;2.47;;;;;;;15.79;62.05;100858.35;1698550;83;25817;-81
2022/07/04 02:40:47;;;;;;;3.47;2.15;;;;;;;15.79;62.10;100862.71;1706044;82;21692;-81
2022/07/04 02:43:13;;;;;;;2.25;1.90;;;;;;;15.78;62.18;100863.16;1701109;82;21507;-81
2022/07/04 02:45:39;;;;;;;4.73;2.03;;;;;;;15.78;62.21;100870.98;1696577;83;21692;-81
2022/07/04 02:48:05;;;;;;;3.37;2.03;;;;;;;15.78;62.26;100866.22;1708547;83;21644;-81
2022/07/04 02:50:31;;;;;;;3.58;2.15;;;;;;;15.77;62.33;100873.19;1682040;83;21923;-81
2022/07/04 02:52:57;;;;;;;2.33;1.90;;;;;;;15.77;62.32;100871.89;1687723;83;20899;-81
2022/07/04 02:55:29;;;;;;;2.10;2.00;;;;;;;15.76;62.38;100869.33;1689410;83;21520;-81
2022/07/04 02:57:55;;;;;;;4.70;2.10;;;;;;;15.76;62.46;100865.42;1688601;83;21539;-81
2022/07/04 03:00:21;;;;;;;2.50;2.20;;;;;;;15.77;62.49;100866.67;1698997;83;21652;-81
2022/07/04 03:02:56;;;;;;;2.37;2.17;;;;;;;15.77;62.53;100861.91;1711599;83;21415;-81
2022/07/04 03:05:22;;;;;;;2.08;1.80;;;;;;;15.76;62.56;100862.81;1711885;83;21529;-81
2022/07/04 03:07:48;;;;;;;2.23;2.03;;;;;;;15.75;62.61;100861.96;1717386;83;21506;-81
2022/07/04 03:10:14;;;;;;;5.37;2.33;;;;;;;15.74;62.59;100865.47;1717632;83;20979;-81
2022/07/04 03:12:40;;;;;;;6.53;2.30;;;;;;;15.71;62.64;100868.18;1742278;82;20881;-81
2022/07/04 03:15:07;;;;;;;2.77;2.23;;;;;;;15.73;62.69;100859.00;1720875;81;21764;-81
2022/07/04 03:17:33;;;;;;;6.17;3.15;;;;;;;15.71;62.73;100857.75;1717421;83;21149;-81
2022/07/04 03:19:59;;;;;;;4.00;2.72;;;;;;;15.71;62.78;100863.42;1709522;83;21495;-81
2022/07/04 03:22:26;;;;;;;4.97;2.30;;;;;;;15.69;62.86;100862.62;1688728;83;21578;-81
2022/07/04 03:24:52;;;;;;;3.08;2.40;;;;;;;15.69;62.89;100863.47;1688667;84;21097;-81
2022/07/04 03:27:19;;;;;;;3.07;2.50;;;;;;;15.67;62.97;100858.75;1689016;84;21475;-81
2022/07/04 03:29:45;;;;;;;2.65;2.40;;;;;;;15.73;63.05;100860.31;1705520;83;21106;-81
2022/07/04 03:32:11;;;;;;;3.23;2.40;;;;;;;15.75;63.09;100856.75;1688687;84;21617;-81
2022/07/04 03:34:37;;;;;;;4.10;2.17;;;;;;;15.78;63.20;100856.64;1688728;84;20923;-81
2022/07/04 03:37:21;;;;;;;2.50;2.22;;;;;;;15.82;63.22;100863.46;1686634;83;21046;-81
2022/07/04 03:39:50;;;;;;;3.70;2.58;;;;;;;15.85;63.27;100859.90;1700810;83;21659;-81
2022/07/04 03:42:16;;;;;;;4.03;2.60;;;;;;;15.89;63.33;100851.92;1736984;82;20943;-81
2022/07/04 03:44:42;;;;;;;2.47;2.27;;;;;;;15.97;63.36;100854.72;1691558;83;21415;-81
2022/07/04 03:47:08;;;;;;;3.00;2.67;;;;;;;15.98;63.38;100845.54;1704736;83;20975;-81
2022/07/04 03:49:34;;;;;;;3.30;2.42;;;;;;;16.00;63.45;100850.25;1717604;83;21479;-81
2022/07/04 03:52:00;;;;;;;2.60;2.40;;;;;;;16.04;63.50;100848.39;1703277;83;21625;-81
2022/07/04 03:54:28;;;;;;;2.07;1.97;;;;;;;16.07;63.55;100849.13;1685266;83;20951;-81
2022/07/04 03:56:54;;;;;;;4.20;2.90;;;;;;;16.13;63.62;100854.56;1704554;83;20943;-81
2022/07/04 03:59:20;;;;;;;5.83;2.40;;;;;;;16.20;63.65;100853.44;1690155;84;20927;-81
2022/07/04 04:01:46;;;;;;;5.30;2.13;;;;;;;16.23;63.72;100854.19;1691317;83;20923;-81
2022/07/04 04:06:57;;;;;;;3.52;2.12;;;;;;;16.39;63.87;100849.72;1700239;83;21471;-81
2022/07/04 04:09:24;;;;;;;5.97;2.42;;;;;;;16.48;63.94;100848.09;1706338;83;20880;-81
2022/07/04 04:11:51;;;;;;;2.50;2.30;;;;;;;16.58;64.00;100850.76;1733045;82;20857;-81
2022/07/04 04:14:17;;;;;;;3.20;2.80;;;;;;;16.80;64.19;100843.83;1733740;81;20959;-81
2022/07/04 04:16:43;;;;;;;3.93;2.43;;;;;;;17.14;64.32;100847.30;1703492;83;21513;-82
2022/07/04 04:19:11;;;;;;;4.70;2.57;;;;;;;17.48;64.28;100845.47;1688841;83;20860;-82
2022/07/04 04:21:38;;;;;;;8.58;2.90;;;;;;;17.71;64.17;100838.44;1714937;83;20908;-82
2022/07/04 04:24:05;;;;;;;7.03;3.02;;;;;;;17.92;64.19;100835.38;1716469;83;21023;-82
2022/07/04 04:26:31;;;;;;;3.60;2.98;;;;;;;18.11;64.18;100830.60;1717284;83;21034;-82
2022/07/04 04:29:03;;;;;;;8.13;2.72;;;;;;;18.30;64.28;100829.30;1717117;83;20946;-82
2022/07/04 04:31:30;;;;;;;4.42;2.70;;;;;;;18.52;64.32;100827.88;1717424;83;26845;-82
2022/07/04 04:33:57;;;;;;;4.50;2.95;;;;;;;18.76;64.36;100826.77;1711552;83;21063;-82
2022/07/04 04:36:24;;;;;;;5.65;2.62;;;;;;;18.95;64.36;100822.83;1691017;83;20990;-82
2022/07/04 04:38:50;;;;;;;5.23;2.30;;;;;;;19.13;64.36;100821.10;1691377;83;21022;-82
2022/07/04 04:41:19;;;;;;;3.42;2.58;;;;;;;19.28;64.35;100824.73;1718950;82;21298;-82
2022/07/04 04:43:45;;;;;;;2.42;2.22;;;;;;;19.40;64.32;100815.80;1714216;83;21023;-82
2022/07/04 04:46:11;;;;;;;3.40;2.47;;;;;;;19.53;64.32;100816.54;1717680;83;21019;-82
2022/07/04 04:48:37;;;;;;;4.40;2.97;;;;;;;19.64;64.30;100819.02;1709000;83;21656;-82
2022/07/04 04:51:03;;;;;;;3.42;2.37;;;;;;;19.77;64.33;100811.34;1688594;83;21046;-82
2022/07/04 04:53:30;;;;;;;3.07;2.53;;;;;;;19.91;64.37;100813.27;1681839;83;21041;-82
2022/07/04 04:55:56;;;;;;;7.28;2.70;;;;;;;20.05;64.38;100810.31;1684449;83;22538;-82
2022/07/04 04:58:23;;;;;;;3.47;2.52;;;;;;;20.12;64.33;100802.97;1693131;83;21020;-82
2022/07/04 05:00:50;;;;;;;4.87;2.52;;;;;;;20.20;64.33;100804.72;1686403;83;21008;-82
2022/07/04 05:03:17;;;;;;;4.17;2.47;;;;;;;20.29;64.32;100786.28;1708204;83;21091;-82
2022/07/04 05:05:44;;;;;;;5.40;2.55;;;;;;;20.44;64.39;100794.23;1708004;83;21047;-82
2022/07/04 05:08:14;;;;;;;2.50;2.30;;;;;;;20.71;64.39;100806.33;1696038;83;21064;-82
2022/07/04 05:10:40;;;;;;;2.60;2.27;;;;;;;20.86;64.30;100815.12;1687957;82;21059;-82
2022/07/04 05:13:07;;;;;;;5.92;2.25;;;;;;;21.12;64.39;100811.04;1681876;81;21066;-82
2022/07/04 05:15:39;;;;;;;5.22;2.40;;;;;;;21.36;64.14;100825.89;1680475;84;21114;-82
2022/07/04 05:18:05;;;;;;;3.53;2.17;;;;;;;21.46;64.04;100831.01;1694150;83;21708;-82
2022/07/04 05:20:32;;;;;;;4.70;2.23;;;;;;;21.55;64.07;100839.69;1688281;83;21041;-82
2022/07/04 05:23:06;;;;;;;5.03;2.40;;;;;;;21.64;64.01;100856.27;1707506;83;21094;-82
2022/07/04 05:25:33;;;;;;;4.83;2.50;;;;;;;21.82;63.96;100879.82;1690690;83;21113;-82
2022/07/04 05:27:59;;;;;;;3.73;2.73;;;;;;;21.85;63.89;100914.69;1681356;83;21067;-82
2022/07/04 05:30:26;;;;;;;5.17;3.00;;;;;;;21.75;63.73;100893.34;1681229;83;21554;-82
2022/07/04 05:32:52;;;;;;;6.07;2.60;;;;;;;21.71;63.82;100899.72;1690389;83;21091;-82
2022/07/04 05:35:18;;;;;;;5.37;2.73;;;;;;;21.71;63.77;100909.40;1703016;83;21050;-82
2022/07/04 05:37:44;;;;;;;4.10;2.13;;;;;;;21.78;63.92;100900.22;1697748;83;21285;-82
2022/07/04 05:40:12;;;;;;;4.87;3.02;;;;;;;21.91;63.67;100918.28;1681188;83;21043;-82
2022/07/04 05:42:38;;;;;;;4.90;2.75;;;;;;;21.93;63.58;100910.30;1695110;82;21058;-82
2022/07/04 05:45:06;;;;;;;2.30;2.10;;;;;;;22.02;63.62;100908.47;1680919;84;20903;-82
2022/07/04 05:47:32;;;;;;;3.77;2.10;;;;;;;22.08;63.45;100908.95;1680419;84;21117;-82
2022/07/04 05:50:00;;;;;;;2.40;1.82;;;;;;;22.12;63.40;100906.99;1682191;83;21126;-82
2022/07/04 05:52:26;;;;;;;2.10;1.92;;;;;;;22.20;63.37;100921.87;1687514;80;21566;-82
2022/07/04 05:54:52;;;;;;;1.90;1.80;;;;;;;22.38;63.20;100919.89;1695700;83;21062;-82
2022/07/04 05:57:19;;;;;;;2.58;2.25;;;;;;;22.39;63.08;100929.03;1685962;83;21011;-82
2022/07/04 05:59:45;;;;;;;4.30;2.10;;;;;;;22.40;62.98;100927.23;1709060;83;20982;-82
2022/07/04 06:02:11;;;;;;;4.03;2.10;;;;;;;22.31;62.87;100926.03;1699438;82;20931;-82
2022/07/04 06:04:38;;;;;;;3.05;2.05;;;;;;;22.20;62.86;100927.61;1711930;83;21050;-82
2022/07/04 06:07:04;;;;;;;3.95;2.10;;;;;;;22.18;62.91;100930.80;1708188;83;21554;-82
2022/07/04 06:09:30;;;;;;;8.10;2.12;;;;;;;22.22;62.92;100935.80;1711406;83;26811;-82
2022/07/04 06:11:56;;;;;;;3.47;2.33;;;;;;;22.33;62.81;100938.64;1716596;82;21082;-82
2022/07/04 06:14:22;;;;;;;3.87;2.07;;;;;;;22.39;62.72;100936.08;1717102;83;21382;-82
2022/07/04 06:16:49;;;;;;;4.28;2.02;;;;;;;22.46;62.63;100942.22;1707098;83;21098;-82
2022/07/04 06:19:15;;;;;;;2.20;2.00;;;;;;;22.55;62.51;100945.23;1688788;83;21791;-82
2022/07/04 06:21:41;;;;;;;2.53;2.03;;;;;;;22.60;62.40;100946.66;1702066;83;20860;-82
2022/07/04 06:24:07;;;;;;;6.97;2.27;;;;;;;22.62;62.33;100948.73;1713933;83;20884;-82
2022/07/04 06:26:33;;;;;;;2.70;2.40;;;;;;;22.66;62.29;100953.34;1695090;83;21058;-82
2022/07/04 06:28:59;;;;;;;2.17;2.00;;;;;;;22.73;62.28;100944.12;1688973;84;21030;-82
2022/07/04 06:31:25;;;;;;;2.77;2.58;;;;;;;22.74;61.67;100944.50;1665183;84;21107;-82
2022/07/04 06:36:36;;;;;;;3.10;2.05;;;;;;;22.85;61.98;100948.67;1696246;83;21388;-82
2022/07/04 06:39:02;;;;;;;6.80;3.13;;;;;;;22.90;61.96;100957.11;1718614;82;21328;-82
2022/07/04 06:41:29;;;;;;;7.67;2.67;;;;;;;22.91;61.81;100959.28;1744626;82;21458;-82
2022/07/04 06:43:56;;;;;;;5.37;2.60;;;;;;;22.88;61.75;100953.73;1747022;81;21112;-83
2022/07/04 06:46:22;;;;;;;3.83;2.10;;;;;;;22.82;61.68;100946.23;1744323;82;21303;-83
2022/07/04 06:48:48;;;;;;;9.35;2.85;;;;;;;22.89;61.77;100942.70;1719707;81;20975;-83
2022/07/04 06:51:14;;;;;;;6.33;2.10;;;;;;;23.34;61.88;100951.70;1718148;82;21055;-83
2022/07/04 06:53:42;;;;;;;4.27;2.20;;;;;;;23.74;61.77;100951.30;1730404;81;21248;-83
2022/07/04 06:56:08;;;;;;;2.65;2.45;;;;;;;24.20;61.21;100959.26;1726125;81;21584;-83
2022/07/04 06:58:34;;;;;;;4.67;2.30;;;;;;;24.22;61.10;100961.33;1706889;82;21717;-83
2022/07/04 07:01:01;;;;;;;4.42;2.72;;;;;;;24.10;60.92;100961.20;1723085;82;20903;-83
2022/07/04 07:03:28;;;;;;;5.77;2.80;;;;;;;23.96;60.71;100952.49;1739523;82;20916;-83
2022/07/04 07:05:56;;;;;;;8.10;3.10;;;;;;;23.69;60.64;100937.55;1707206;80;581280;-83
2022/07/04 07:08:23;;;;;;;10.85;2.95;;;;;;;23.39;60.67;100925.02;1672360;84;20883;-82
2022/07/04 07:10:49;;;;;;;7.12;3.15;;;;;;;23.19;60.78;100934.67;1671427;84;21376;-82
2022/07/04 07:13:15;;;;;;;6.22;2.95;;;;;;;23.02;60.76;100944.48;1685805;83;20906;-82
2022/07/04 07:15:41;;;;;;;5.53;2.73;;;;;;;22.80;60.73;100932.29;1689998;84;20879;-82
2022/07/04 07:18:07;;;;;;;5.23;3.10;;;;;;;22.63;60.69;100919.26;1697225;84;21573;-82
2022/07/04 07:20:33;;;;;;;12.90;3.25;;;;;;;22.46;60.73;100913.70;1673682;84;20893;-82
2022/07/04 07:23:05;;;;;;;4.63;3.00;;;;;;;22.32;60.69;100926.41;1669575;84;20934;-82
2022/07/04 07:25:31;;;;;;;3.08;2.80;;;;;;;22.21;60.75;100927.52;1691022;84;21031;-82
2022/07/04 07:27:58;;;;;;;8.50;3.27;;;;;;;22.15;60.72;100938.42;1697863;84;20848;-82
2022/07/04 07:30:24;;;;;;;6.30;3.58;;;;;;;22.08;60.70;100937.93;1697301;84;21419;-82
2022/07/04 07:32:51;;;;;;;5.42;2.67;;;;;;;22.04;60.69;100923.72;1682984;84;20899;-82
2022/07/04 07:35:17;;;;;;;5.78;2.77;;;;;;;22.06;60.65;100921.37;1669542;85;20958;-82
2022/07/04 07:37:43;;;;;;;10.68;3.42;;;;;;;21.98;60.57;100947.73;1669329;85;20935;-82
2022/07/04 07:40:10;;;;;;;6.00;2.90;;;;;;;21.91;60.66;100944.61;1672500;84;20915;-83
2022/07/04 07:42:36;;;;;;;9.38;3.37;;;;;;;21.81;60.71;100932.95;1691911;84;21270;-83
2022/07/04 07:45:06;;;;;;;23.05;4.10;;;;;;;21.70;60.71;100931.39;1687110;84;21046;-85
2022/07/04 07:47:33;;;;;;;24.12;6.15;;;;;;;21.45;61.05;100939.82;1679992;84;21042;-86
2022/07/04 07:49:59;;;;;;;15.23;4.87;;;;;;;21.26;61.32;100939.17;1667956;85;21058;-86
2022/07/04 07:52:26;;;;;;;11.97;4.28;;;;;;;20.89;61.33;100923.20;1674456;84;21045;-86
2022/07/04 07:54:52;;;;;;;6.93;3.83;;;;;;;20.61;61.71;100915.96;1696330;84;20867;-86
2022/07/04 07:57:18;;;;;;;5.27;3.53;;;;;;;20.29;62.10;100912.34;1696204;84;20904;-86
2022/07/04 07:59:44;;;;;;;7.40;4.27;;;;;;;20.11;62.64;100922.89;1690079;84;20964;-86
2022/07/04 08:02:10;;;;;;;9.47;4.40;;;;;;;20.01;62.63;100935.23;1668108;84;21051;-86
2022/07/04 08:04:37;;;;;;;7.27;4.40;;;;;;;19.97;62.78;100937.17;1669101;84;21284;-86
2022/07/04 08:07:08;;;;;;;;;;;;;;;20.03;62.77;100934.70;1670394;84;21121;-87
2022/07/04 08:09:35;;;;;;;4.67;4.28;;;;;;;20.16;63.97;100943.66;1668719;84;20648;-87
2022/07/04 08:12:04;;;;;;;6.05;4.10;;;;;;;20.75;63.65;100939.73;1695053;84;20939;-87
2022/07/04 08:14:31;;;;;;;4.83;3.83;;;;;;;21.57;63.47;100943.08;1664842;83;21078;-88
2022/07/04 08:16:58;;;;;;;4.67;3.62;;;;;;;22.11;63.50;100940.38;1679910;84;21092;-88
2022/07/04 08:19:25;;;;;;;6.03;3.52;;;;;;;22.95;63.76;100941.01;1668119;85;21054;-88
2022/07/04 08:21:52;;;;;;;7.90;3.35;;;;;;;23.41;63.47;100942.88;1667996;85;21514;-88
2022/07/04 08:24:19;;;;;;;7.92;3.67;;;;;;;23.83;63.40;100931.36;1679296;84;21579;-88
2022/07/04 08:26:45;;;;;;;6.20;3.20;;;;;;;24.43;63.54;100928.18;1689725;84;20994;-88
2022/07/04 08:29:20;;;;;;;3.47;2.72;;;;;;;25.01;63.39;100930.22;1695946;84;20954;-87
2022/07/04 08:31:47;;;;;;;6.47;2.85;;;;;;;25.41;63.12;100937.95;1695745;84;21098;-87
2022/07/04 08:34:14;;;;;;;;;;;;;;;25.87;63.31;100933.23;1686271;84;21466;-87
2022/07/04 08:36:48;;;;;;;4.35;2.77;;;;;;;26.26;62.56;100938.63;1687974;84;20187;-86
2022/07/04 08:39:14;;;;;;;4.33;2.50;;;;;;;26.26;62.59;100939.47;1685147;84;21045;-86
2022/07/04 08:41:41;;;;;;;7.15;2.55;;;;;;;26.35;62.59;100947.23;1686950;84;21046;-86
2022/07/04 08:44:10;;;;;;;3.85;2.55;;;;;;;26.67;62.59;100961.96;1667659;84;21097;-86
2022/07/04 08:46:40;;;;;;;4.97;2.30;;;;;;;26.83;62.16;100970.42;1667722;84;21049;-86
2022/07/04 08:49:17;;;;;;;4.55;2.30;;;;;;;27.01;62.17;100965.02;1667755;85;21066;-85
2022/07/04 08:52:03;;;;;;;3.20;2.47;;;;;;;27.21;61.81;100963.89;1669976;84;21022;-85
2022/07/04 09:00:07;;;;;;;4.35;2.05;;;;;;;27.24;60.92;100980.91;1684962;84;20875;-85
2022/07/04 09:02:37;;;;;;;5.05;2.10;;;;;;;26.95;60.97;100984.53;1685367;84;20895;-84
2022/07/04 09:05:05;;;;;;;2.85;2.35;;;;;;;26.95;60.74;100980.55;1697272;84;20923;-84
2022/07/04 09:07:31;;;;;;;5.97;2.80;;;;;;;26.79;60.58;100984.89;1697334;84;20875;-84
2022/07/04 09:09:58;;;;;;;2.62;2.30;;;;;;;26.68;60.65;100979.09;1697482;84;20860;-84
2022/07/04 09:12:24;;;;;;;;;;;;;;;26.62;60.25;100986.67;1692856;84;20903;-84
2022/07/04 09:14:56;;;;;;;;;;;;;;;26.42;59.94;100988.72;1673703;84;20131;-84
2022/07/04 09:17:19;;;;;;;5.60;2.40;;;;;;;26.36;59.94;100996.66;1683628;84;20104;-84
2022/07/04 09:19:45;;;;;;;5.75;2.58;;;;;;;26.31;60.33;101000.98;1695765;84;20844;-84
2022/07/04 09:22:11;;;;;;;2.80;2.30;;;;;;;26.37;60.19;100998.34;1675608;84;20879;-84
2022/07/04 09:24:54;;;;;;;2.60;2.17;;;;;;;26.19;59.73;101003.20;1669399;85;21459;-84
2022/07/04 09:27:32;;;;;;;4.80;2.50;;;;;;;26.06;59.83;101007.24;1669447;84;20919;-84
2022/07/04 09:29:58;;;;;;;3.22;2.58;;;;;;;25.95;59.72;101001.08;1670273;84;20860;-84
2022/07/04 09:32:51;;;;;;;4.53;2.70;;;;;;;25.95;59.72;101005.05;1679987;84;20910;-84
2022/07/04 09:35:21;;;;;;;3.90;2.20;;;;;;;26.01;59.72;101000.59;1669332;85;20935;-84
2022/07/04 09:37:55;;;;;;;5.15;3.20;;;;;;;26.00;59.53;100999.75;1670772;84;20919;-84
2022/07/04 09:40:28;;;;;;;3.40;2.80;;;;;;;26.08;59.52;101004.95;1669060;85;20912;-84
2022/07/04 09:42:57;;;;;;;4.80;2.70;;;;;;;26.10;59.33;101004.36;1677326;84;20875;-84
2022/07/04 09:45:30;;;;;;;2.80;2.20;;;;;;;26.10;59.21;100999.91;1669158;84;20955;-84
2022/07/04 09:47:59;;;;;;;2.37;2.00;;;;;;;26.04;59.03;101001.21;1647541;85;20915;-84
2022/07/04 09:50:28;;;;;;;1.95;1.85;;;;;;;25.99;59.08;101001.22;1675001;84;20962;-84
2022/07/04 09:53:02;;;;;;;4.35;2.40;;;;;;;25.99;58.79;101006.52;1680097;84;20910;-84
2022/07/04 09:55:39;;;;;;;4.42;2.10;;;;;;;25.92;58.75;101003.95;1670605;84;20955;-84
2022/07/04 09:58:09;;;;;;;2.65;2.10;;;;;;;25.97;58.80;100997.84;1669256;84;20859;-84
2022/07/04 10:00:45;;;;;;;3.85;2.10;;;;;;;26.05;58.68;100997.59;1669069;85;20911;-84
2022/07/04 10:03:21;;;;;;;2.62;2.00;;;;;;;26.06;58.42;100999.77;1675873;84;20954;-84
2022/07/04 10:06:12;;;;;;;5.37;2.10;;;;;;;26.04;58.31;101001.69;1669871;84;20974;-84
2022/07/04 10:08:40;;;;;;;2.98;2.17;;;;;;;26.08;58.26;101001.83;1668996;85;21514;-84
2022/07/04 10:11:07;;;;;;;3.42;1.85;;;;;;;26.13;58.20;101002.33;1674560;84;20860;-84
2022/07/04 10:13:33;;;;;;;2.02;1.90;;;;;;;26.16;58.09;100998.60;1680967;83;20955;-84
2022/07/04 10:15:59;;;;;;;1.80;1.70;;;;;;;26.18;57.87;100998.02;1669226;85;20919;-84
2022/07/04 10:18:28;;;;;;;2.92;1.90;;;;;;;26.15;57.73;100997.77;1670042;84;20863;-83
2022/07/04 10:20:56;;;;;;;2.00;1.90;;;;;;;26.21;57.70;100995.97;1678629;83;20891;-83
2022/07/04 10:23:30;;;;;;;3.27;1.80;;;;;;;26.26;57.66;100995.63;1696234;84;21415;-83
2022/07/04 10:25:56;;;;;;;5.95;1.65;;;;;;;26.26;57.54;101001.78;1678413;84;20978;-83
2022/07/04 10:28:22;;;;;;;2.33;1.87;;;;;;;26.24;57.32;100993.57;1667866;84;21633;-83
2022/07/04 10:30:52;;;;;;;2.27;1.35;;;;;;;26.17;57.06;100990.53;1667954;85;21057;-83
2022/07/04 10:33:26;;;;;;;2.95;1.50;;;;;;;26.11;57.01;100991.00;1674201;84;21046;-83
2022/07/04 10:36:05;;;;;;;2.92;1.70;;;;;;;26.08;56.97;100989.05;1666759;85;21490;-83
2022/07/04 10:38:35;;;;;;;3.80;1.52;;;;;;;26.09;56.88;100983.64;1667669;85;21498;-84
2022/07/04 10:41:07;;;;;;;1.85;1.75;;;;;;;26.06;56.64;100987.84;1653942;84;21029;-83
2022/07/04 10:43:42;;;;;;;1.25;1.22;;;;;;;25.99;56.42;100985.31;1696076;84;21452;-83
2022/07/04 10:46:28;;;;;;;1.60;1.40;;;;;;;25.92;56.30;100976.98;1695233;84;21081;-83
2022/07/04 10:49:19;;;;;;;1.50;1.30;;;;;;;25.88;56.18;100983.94;1678699;84;21046;-83
2022/07/04 10:52:12;;;;;;;3.22;1.27;;;;;;;25.86;56.05;100980.08;1668095;84;21411;-83
2022/07/04 10:54:44;;;;;;;2.35;1.50;;;;;;;25.83;55.77;100985.61;1668926;84;21419;-83
2022/07/04 10:57:20;;;;;;;2.15;1.22;;;;;;;25.81;55.66;100985.35;1677418;84;21399;-83
2022/07/04 10:59:59;;;;;;;1.65;1.55;;;;;;;25.79;55.49;100980.17;1697396;84;21776;-83
2022/07/04 11:02:34;;;;;;;2.15;1.37;;;;;;;25.77;55.22;100987.38;1697392;84;20867;-83
2022/07/04 11:05:14;;;;;;;1.37;1.27;;;;;;;25.68;55.05;100983.60;1697278;84;21809;-83
2022/07/04 11:07:46;;;;;;;3.00;1.82;;;;;;;25.67;55.19;100983.23;1681758;84;21336;-83
2022/07/04 11:13:00;;;;;;;2.00;1.90;;;;;;;25.61;54.93;100982.80;1694019;84;21357;-83
2022/07/04 11:15:34;;;;;;;2.45;2.12;;;;;;;25.64;54.86;100983.46;1690365;84;21343;-83
2022/07/04 11:18:05;;;;;;;2.65;2.05;;;;;;;25.68;54.78;100984.08;1697481;84;20887;-83
2022/07/04 11:20:40;;;;;;;2.60;2.40;;;;;;;25.75;54.72;100988.45;1692951;84;21404;-83
2022/07/04 11:23:15;;;;;;;4.95;2.50;;;;;;;25.75;54.66;100984.48;1669349;84;21376;-83
2022/07/04 11:25:46;;;;;;;3.30;2.60;;;;;;;25.76;54.62;100983.05;1669615;84;21388;-83
2022/07/04 11:28:24;;;;;;;3.15;2.58;;;;;;;25.76;54.35;100982.20;1686348;84;21443;-83
2022/07/04 11:30:57;;;;;;;2.65;2.42;;;;;;;25.71;54.49;100983.38;1695553;84;21604;-83
2022/07/04 11:33:27;;;;;;;7.78;2.72;;;;;;;25.75;54.56;100981.35;1688660;84;21375;-83
2022/07/04 11:36:14;;;;;;;2.95;2.70;;;;;;;25.90;54.66;100979.37;1667638;84;21486;-83
2022/07/04 11:38:54;;;;;;;4.65;2.83;;;;;;;25.95;54.52;100974.09;1674752;84;21518;-83
2022/07/04 11:47:16;;;;;;;3.52;2.70;;;;;;;25.89;54.61;100959.13;1690302;84;21495;-84
2022/07/04 11:49:55;;;;;;;2.95;2.55;;;;;;;26.05;54.47;100977.72;1682904;84;21621;-83
2022/07/04 11:52:34;;;;;;;2.67;2.47;;;;;;;26.13;54.47;100977.62;1682509;84;21462;-83
2022/07/04 11:55:01;;;;;;;3.15;2.90;;;;;;;26.15;54.39;100968.60;1664678;84;21076;-83
2022/07/04 11:57:35;;;;;;;2.83;2.45;;;;;;;26.18;54.35;100967.52;1662474;85;21001;-83